sensor_id;sensor_type;location;lat;lon;timestamp;pressure;altitude;pressure_sealevel;temperature;humidity
34205;BME280;20471;49.680;20.074;2024-03-25T00:01:25;95844.77;;;0.82;75.47
34205;BME280;20471;49.680;20.074;2024-03-25T00:03:51;95852.59;;;0.80;75.38
34205;BME280;20471;49.680;20.074;2024-03-25T00:06:18;95857.86;;;0.81;75.50
34205;BME280;20471;49.680;20.074;2024-03-25T00:08:44;95854.80;;;0.81;75.53
34205;BME280;20471;49.680;20.074;2024-03-25T00:11:11;95855.99;;;0.78;75.55
34205;BME280;20471;49.680;20.074;2024-03-25T00:13:38;95857.30;;;0.78;75.72
34205;BME280;20471;49.680;20.074;2024-03-25T00:16:05;95853.42;;;0.79;75.72
34205;BME280;20471;49.680;20.074;2024-03-25T00:18:32;95849.27;;;0.80;75.80
34205;BME280;20471;49.680;20.074;2024-03-25T00:20:59;95850.81;;;0.82;75.75
34205;BME280;20471;49.680;20.074;2024-03-25T00:23:25;95847.59;;;0.85;75.88
34205;BME280;20471;49.680;20.074;2024-03-25T00:25:52;95847.66;;;0.87;75.98
34205;BME280;20471;49.680;20.074;2024-03-25T00:28:18;95843.27;;;0.90;76.10
34205;BME280;20471;49.680;20.074;2024-03-25T00:30:45;95843.38;;;0.91;76.12
34205;BME280;20471;49.680;20.074;2024-03-25T00:33:11;95843.87;;;0.95;76.13
34205;BME280;20471;49.680;20.074;2024-03-25T00:35:38;95846.48;;;0.99;76.19
34205;BME280;20471;49.680;20.074;2024-03-25T00:38:04;95839.96;;;1.02;76.16
34205;BME280;20471;49.680;20.074;2024-03-25T00:40:33;95841.55;;;1.05;76.21
34205;BME280;20471;49.680;20.074;2024-03-25T00:43:00;95836.83;;;1.06;76.32
34205;BME280;20471;49.680;20.074;2024-03-25T00:45:26;95832.77;;;1.05;76.31
34205;BME280;20471;49.680;20.074;2024-03-25T00:48:19;95830.98;;;1.05;76.42
34205;BME280;20471;49.680;20.074;2024-03-25T00:50:46;95829.94;;;1.04;76.49
34205;BME280;20471;49.680;20.074;2024-03-25T00:53:12;95830.56;;;1.02;76.50
34205;BME280;20471;49.680;20.074;2024-03-25T00:55:39;95833.35;;;0.99;76.51
34205;BME280;20471;49.680;20.074;2024-03-25T00:58:06;95834.75;;;0.99;76.60
34205;BME280;20471;49.680;20.074;2024-03-25T01:00:32;95831.02;;;0.98;76.77
34205;BME280;20471;49.680;20.074;2024-03-25T01:02:58;95832.01;;;1.00;76.67
34205;BME280;20471;49.680;20.074;2024-03-25T01:05:25;95828.02;;;1.01;76.74
34205;BME280;20471;49.680;20.074;2024-03-25T01:07:51;95829.88;;;1.03;76.82
34205;BME280;20471;49.680;20.074;2024-03-25T01:10:18;95831.07;;;1.08;76.92
34205;BME280;20471;49.680;20.074;2024-03-25T01:12:44;95828.98;;;1.10;77.00
34205;BME280;20471;49.680;20.074;2024-03-25T01:15:13;95828.19;;;1.11;76.95
34205;BME280;20471;49.680;20.074;2024-03-25T01:17:40;95826.09;;;1.14;77.04
34205;BME280;20471;49.680;20.074;2024-03-25T01:20:07;95828.58;;;1.17;76.98
34205;BME280;20471;49.680;20.074;2024-03-25T01:22:34;95829.27;;;1.20;76.96
34205;BME280;20471;49.680;20.074;2024-03-25T01:25:01;95828.66;;;1.23;76.97
34205;BME280;20471;49.680;20.074;2024-03-25T01:27:28;95830.08;;;1.26;76.99
34205;BME280;20471;49.680;20.074;2024-03-25T01:29:54;95832.74;;;1.27;76.95
34205;BME280;20471;49.680;20.074;2024-03-25T01:32:21;95831.87;;;1.26;77.12
34205;BME280;20471;49.680;20.074;2024-03-25T01:34:47;95830.49;;;1.22;77.18
34205;BME280;20471;49.680;20.074;2024-03-25T01:37:13;95831.39;;;1.21;77.19
34205;BME280;20471;49.680;20.074;2024-03-25T01:40:00;95835.94;;;1.20;77.28
34205;BME280;20471;49.680;20.074;2024-03-25T01:42:37;95839.01;;;1.17;77.35
34205;BME280;20471;49.680;20.074;2024-03-25T01:45:04;95839.58;;;1.17;77.43
34205;BME280;20471;49.680;20.074;2024-03-25T01:47:32;95836.60;;;1.18;77.47
34205;BME280;20471;49.680;20.074;2024-03-25T01:50:01;95836.34;;;1.20;77.57
34205;BME280;20471;49.680;20.074;2024-03-25T01:52:30;95832.95;;;1.20;77.64
34205;BME280;20471;49.680;20.074;2024-03-25T01:54:59;95829.99;;;1.20;77.66
34205;BME280;20471;49.680;20.074;2024-03-25T01:57:29;95832.98;;;1.21;77.68
34205;BME280;20471;49.680;20.074;2024-03-25T01:59:55;95831.45;;;1.25;77.72
34205;BME280;20471;49.680;20.074;2024-03-25T02:02:45;95830.27;;;1.29;77.85
34205;BME280;20471;49.680;20.074;2024-03-25T02:05:16;95829.21;;;1.30;77.86
34205;BME280;20471;49.680;20.074;2024-03-25T02:07:43;95829.17;;;1.30;77.85
34205;BME280;20471;49.680;20.074;2024-03-25T02:10:10;95826.36;;;1.33;77.96
34205;BME280;20471;49.680;20.074;2024-03-25T02:12:44;95828.97;;;1.36;78.02
34205;BME280;20471;49.680;20.074;2024-03-25T02:15:12;95830.39;;;1.38;78.01
34205;BME280;20471;49.680;20.074;2024-03-25T02:17:39;95831.04;;;1.42;78.10
34205;BME280;20471;49.680;20.074;2024-03-25T02:20:06;95832.32;;;1.44;78.25
34205;BME280;20471;49.680;20.074;2024-03-25T02:22:34;95834.81;;;1.43;78.31
34205;BME280;20471;49.680;20.074;2024-03-25T02:25:07;95830.80;;;1.42;78.35
34205;BME280;20471;49.680;20.074;2024-03-25T02:27:35;95827.70;;;1.43;78.47
34205;BME280;20471;49.680;20.074;2024-03-25T02:30:03;95826.76;;;1.43;78.60
34205;BME280;20471;49.680;20.074;2024-03-25T02:32:31;95822.75;;;1.46;78.63
34205;BME280;20471;49.680;20.074;2024-03-25T02:34:58;95820.80;;;1.48;78.64
34205;BME280;20471;49.680;20.074;2024-03-25T02:37:25;95817.12;;;1.52;78.53
34205;BME280;20471;49.680;20.074;2024-03-25T02:39:57;95817.18;;;1.56;78.56
34205;BME280;20471;49.680;20.074;2024-03-25T02:42:30;95814.60;;;1.58;78.54
34205;BME280;20471;49.680;20.074;2024-03-25T02:44:57;95810.61;;;1.60;78.61
34205;BME280;20471;49.680;20.074;2024-03-25T02:47:27;95811.64;;;1.65;78.52
34205;BME280;20471;49.680;20.074;2024-03-25T02:49:56;95812.44;;;1.68;78.52
34205;BME280;20471;49.680;20.074;2024-03-25T02:52:22;95810.56;;;1.70;78.51
34205;BME280;20471;49.680;20.074;2024-03-25T02:54:49;95808.40;;;1.72;78.45
34205;BME280;20471;49.680;20.074;2024-03-25T02:57:15;95808.34;;;1.74;78.45
34205;BME280;20471;49.680;20.074;2024-03-25T02:59:41;95809.17;;;1.77;78.48
34205;BME280;20471;49.680;20.074;2024-03-25T03:02:17;95810.96;;;1.79;78.46
34205;BME280;20471;49.680;20.074;2024-03-25T03:04:44;95808.55;;;1.82;78.34
34205;BME280;20471;49.680;20.074;2024-03-25T03:07:10;95808.27;;;1.83;78.24
34205;BME280;20471;49.680;20.074;2024-03-25T03:09:37;95806.38;;;1.79;78.28
34205;BME280;20471;49.680;20.074;2024-03-25T03:12:04;95806.61;;;1.77;78.26
34205;BME280;20471;49.680;20.074;2024-03-25T03:14:31;95805.85;;;1.75;78.33
34205;BME280;20471;49.680;20.074;2024-03-25T03:16:57;95806.66;;;1.74;78.36
34205;BME280;20471;49.680;20.074;2024-03-25T03:19:27;95809.74;;;1.75;78.40
34205;BME280;20471;49.680;20.074;2024-03-25T03:21:57;95808.90;;;1.73;78.32
34205;BME280;20471;49.680;20.074;2024-03-25T03:24:23;95810.08;;;1.70;78.23
34205;BME280;20471;49.680;20.074;2024-03-25T03:26:50;95815.34;;;1.66;78.17
34205;BME280;20471;49.680;20.074;2024-03-25T03:29:16;95816.74;;;1.59;78.09
34205;BME280;20471;49.680;20.074;2024-03-25T03:31:44;95821.15;;;1.55;78.19
34205;BME280;20471;49.680;20.074;2024-03-25T03:34:10;95823.80;;;1.53;78.21
34205;BME280;20471;49.680;20.074;2024-03-25T03:36:37;95824.05;;;1.50;78.17
34205;BME280;20471;49.680;20.074;2024-03-25T03:39:03;95827.45;;;1.45;78.18
34205;BME280;20471;49.680;20.074;2024-03-25T03:41:29;95822.92;;;1.40;78.15
34205;BME280;20471;49.680;20.074;2024-03-25T03:43:56;95822.02;;;1.39;78.29
34205;BME280;20471;49.680;20.074;2024-03-25T03:46:22;95820.12;;;1.34;78.28
34205;BME280;20471;49.680;20.074;2024-03-25T03:48:48;95818.49;;;1.29;78.27
34205;BME280;20471;49.680;20.074;2024-03-25T03:51:15;95820.34;;;1.26;78.40
34205;BME280;20471;49.680;20.074;2024-03-25T03:53:41;95819.46;;;1.24;78.36
34205;BME280;20471;49.680;20.074;2024-03-25T03:56:08;95820.15;;;1.23;78.33
34205;BME280;20471;49.680;20.074;2024-03-25T03:58:35;95820.08;;;1.18;78.33
34205;BME280;20471;49.680;20.074;2024-03-25T04:01:01;95819.52;;;1.14;78.30
34205;BME280;20471;49.680;20.074;2024-03-25T04:03:30;95821.47;;;1.14;78.39
34205;BME280;20471;49.680;20.074;2024-03-25T04:05:57;95826.16;;;1.13;78.44
34205;BME280;20471;49.680;20.074;2024-03-25T04:08:23;95823.41;;;1.13;78.58
34205;BME280;20471;49.680;20.074;2024-03-25T04:10:49;95823.56;;;1.11;78.57
34205;BME280;20471;49.680;20.074;2024-03-25T04:13:16;95816.49;;;1.11;78.72
34205;BME280;20471;49.680;20.074;2024-03-25T04:15:45;95815.81;;;1.13;78.81
34205;BME280;20471;49.680;20.074;2024-03-25T04:18:12;95814.84;;;1.13;78.94
34205;BME280;20471;49.680;20.074;2024-03-25T04:20:41;95812.95;;;1.17;78.86
34205;BME280;20471;49.680;20.074;2024-03-25T04:23:16;95812.73;;;1.20;78.81
34205;BME280;20471;49.680;20.074;2024-03-25T04:25:43;95815.69;;;1.21;78.65
34205;BME280;20471;49.680;20.074;2024-03-25T04:28:10;95818.77;;;1.20;78.66
34205;BME280;20471;49.680;20.074;2024-03-25T04:30:36;95822.02;;;1.20;78.59
34205;BME280;20471;49.680;20.074;2024-03-25T04:33:03;95819.39;;;1.18;78.45
34205;BME280;20471;49.680;20.074;2024-03-25T04:35:29;95824.43;;;1.16;78.50
34205;BME280;20471;49.680;20.074;2024-03-25T04:37:56;95828.95;;;1.14;78.47
34205;BME280;20471;49.680;20.074;2024-03-25T04:40:22;95828.97;;;1.12;78.34
34205;BME280;20471;49.680;20.074;2024-03-25T04:42:49;95823.72;;;1.08;78.43
34205;BME280;20471;49.680;20.074;2024-03-25T04:45:16;95823.89;;;1.04;78.42
34205;BME280;20471;49.680;20.074;2024-03-25T04:47:42;95829.98;;;1.01;78.49
34205;BME280;20471;49.680;20.074;2024-03-25T04:50:10;95837.67;;;0.97;78.45
34205;BME280;20471;49.680;20.074;2024-03-25T04:52:36;95837.83;;;0.95;78.43
34205;BME280;20471;49.680;20.074;2024-03-25T04:55:02;95843.00;;;0.90;78.46
34205;BME280;20471;49.680;20.074;2024-03-25T04:57:29;95840.41;;;0.84;78.45
34205;BME280;20471;49.680;20.074;2024-03-25T04:59:56;95839.70;;;0.79;78.55
34205;BME280;20471;49.680;20.074;2024-03-25T05:02:22;95841.92;;;0.76;78.69
34205;BME280;20471;49.680;20.074;2024-03-25T05:04:48;95837.63;;;0.77;78.80
34205;BME280;20471;49.680;20.074;2024-03-25T05:07:15;95839.33;;;0.79;78.99
34205;BME280;20471;49.680;20.074;2024-03-25T05:09:41;95841.84;;;0.80;79.09
34205;BME280;20471;49.680;20.074;2024-03-25T05:12:08;95840.72;;;0.83;79.10
34205;BME280;20471;49.680;20.074;2024-03-25T05:14:34;95844.39;;;0.90;79.20
34205;BME280;20471;49.680;20.074;2024-03-25T05:17:01;95844.89;;;0.94;79.39
34205;BME280;20471;49.680;20.074;2024-03-25T05:19:29;95845.34;;;0.94;79.29
34205;BME280;20471;49.680;20.074;2024-03-25T05:21:55;95845.20;;;0.98;79.37
34205;BME280;20471;49.680;20.074;2024-03-25T05:24:22;95840.67;;;1.03;79.38
34205;BME280;20471;49.680;20.074;2024-03-25T05:26:50;95837.91;;;1.10;79.42
34205;BME280;20471;49.680;20.074;2024-03-25T05:29:17;95840.02;;;1.17;79.51
34205;BME280;20471;49.680;20.074;2024-03-25T05:31:56;95840.39;;;1.23;79.59
34205;BME280;20471;49.680;20.074;2024-03-25T05:34:24;95838.11;;;1.28;79.58
34205;BME280;20471;49.680;20.074;2024-03-25T05:36:50;95837.84;;;1.34;79.62
34205;BME280;20471;49.680;20.074;2024-03-25T05:39:17;95839.50;;;1.42;79.62
34205;BME280;20471;49.680;20.074;2024-03-25T05:41:44;95833.90;;;1.50;79.68
34205;BME280;20471;49.680;20.074;2024-03-25T05:44:10;95836.86;;;1.57;79.64
34205;BME280;20471;49.680;20.074;2024-03-25T05:46:38;95839.23;;;1.65;79.71
34205;BME280;20471;49.680;20.074;2024-03-25T05:49:05;95836.86;;;1.72;79.83
34205;BME280;20471;49.680;20.074;2024-03-25T05:51:34;95839.86;;;1.80;79.82
34205;BME280;20471;49.680;20.074;2024-03-25T05:54:01;95839.77;;;1.86;79.75
34205;BME280;20471;49.680;20.074;2024-03-25T05:56:28;95842.55;;;1.92;79.77
34205;BME280;20471;49.680;20.074;2024-03-25T05:59:02;95844.18;;;1.99;79.71
34205;BME280;20471;49.680;20.074;2024-03-25T06:01:42;95844.14;;;2.06;79.71
34205;BME280;20471;49.680;20.074;2024-03-25T06:04:09;95843.94;;;2.14;79.84
34205;BME280;20471;49.680;20.074;2024-03-25T06:06:35;95846.17;;;2.24;79.80
34205;BME280;20471;49.680;20.074;2024-03-25T06:09:01;95845.52;;;2.35;79.79
34205;BME280;20471;49.680;20.074;2024-03-25T06:11:28;95850.27;;;2.44;79.71
34205;BME280;20471;49.680;20.074;2024-03-25T06:13:54;95851.33;;;2.54;79.64
34205;BME280;20471;49.680;20.074;2024-03-25T06:16:41;95851.44;;;2.64;79.55
34205;BME280;20471;49.680;20.074;2024-03-25T06:19:09;95847.30;;;2.76;79.29
34205;BME280;20471;49.680;20.074;2024-03-25T06:21:35;95847.66;;;2.85;79.01
34205;BME280;20471;49.680;20.074;2024-03-25T06:24:01;95846.29;;;2.94;78.88
34205;BME280;20471;49.680;20.074;2024-03-25T06:26:28;95846.06;;;3.04;78.57
34205;BME280;20471;49.680;20.074;2024-03-25T06:28:54;95845.05;;;3.11;78.45
34205;BME280;20471;49.680;20.074;2024-03-25T06:31:20;95846.66;;;3.19;78.53
34205;BME280;20471;49.680;20.074;2024-03-25T06:34:05;95847.60;;;3.27;78.47
34205;BME280;20471;49.680;20.074;2024-03-25T06:36:41;95854.85;;;3.34;78.18
34205;BME280;20471;49.680;20.074;2024-03-25T06:39:07;95858.25;;;3.40;77.86
34205;BME280;20471;49.680;20.074;2024-03-25T06:41:34;95858.35;;;3.45;77.79
34205;BME280;20471;49.680;20.074;2024-03-25T06:44:00;95855.06;;;3.50;77.70
34205;BME280;20471;49.680;20.074;2024-03-25T06:46:26;95856.61;;;3.58;77.65
34205;BME280;20471;49.680;20.074;2024-03-25T06:48:53;95858.33;;;3.67;77.43
34205;BME280;20471;49.680;20.074;2024-03-25T06:51:19;95859.81;;;3.76;77.10
34205;BME280;20471;49.680;20.074;2024-03-25T06:53:46;95866.14;;;3.84;76.86
34205;BME280;20471;49.680;20.074;2024-03-25T06:56:12;95867.69;;;3.93;76.64
34205;BME280;20471;49.680;20.074;2024-03-25T06:58:38;95865.61;;;4.02;76.57
34205;BME280;20471;49.680;20.074;2024-03-25T07:01:06;95870.75;;;4.06;75.81
34205;BME280;20471;49.680;20.074;2024-03-25T07:03:34;95870.98;;;4.11;75.86
34205;BME280;20471;49.680;20.074;2024-03-25T07:06:01;95877.14;;;4.18;75.86
34205;BME280;20471;49.680;20.074;2024-03-25T07:08:28;95876.39;;;4.20;75.64
34205;BME280;20471;49.680;20.074;2024-03-25T07:10:56;95880.42;;;4.21;75.57
34205;BME280;20471;49.680;20.074;2024-03-25T07:13:23;95880.70;;;4.20;75.59
34205;BME280;20471;49.680;20.074;2024-03-25T07:15:49;95887.69;;;4.22;75.89
34205;BME280;20471;49.680;20.074;2024-03-25T07:18:16;95889.08;;;4.27;76.06
34205;BME280;20471;49.680;20.074;2024-03-25T07:20:43;95888.95;;;4.31;76.06
34205;BME280;20471;49.680;20.074;2024-03-25T07:23:10;95887.84;;;4.33;76.00
34205;BME280;20471;49.680;20.074;2024-03-25T07:25:37;95891.06;;;4.38;76.27
34205;BME280;20471;49.680;20.074;2024-03-25T07:28:04;95892.33;;;4.44;76.28
34205;BME280;20471;49.680;20.074;2024-03-25T07:30:30;95897.23;;;4.49;76.22
34205;BME280;20471;49.680;20.074;2024-03-25T07:32:58;95899.08;;;4.52;76.32
34205;BME280;20471;49.680;20.074;2024-03-25T07:35:25;95900.10;;;4.55;76.25
34205;BME280;20471;49.680;20.074;2024-03-25T07:37:51;95904.05;;;4.57;76.23
34205;BME280;20471;49.680;20.074;2024-03-25T07:40:19;95905.66;;;4.60;76.03
34205;BME280;20471;49.680;20.074;2024-03-25T07:42:45;95908.85;;;4.57;75.67
34205;BME280;20471;49.680;20.074;2024-03-25T07:45:12;95909.31;;;4.57;75.83
34205;BME280;20471;49.680;20.074;2024-03-25T07:47:38;95911.02;;;4.58;75.72
34205;BME280;20471;49.680;20.074;2024-03-25T07:50:05;95911.02;;;4.60;75.59
34205;BME280;20471;49.680;20.074;2024-03-25T07:52:31;95911.25;;;4.62;75.56
34205;BME280;20471;49.680;20.074;2024-03-25T07:54:58;95910.14;;;4.65;75.61
34205;BME280;20471;49.680;20.074;2024-03-25T07:57:24;95911.94;;;4.70;75.54
34205;BME280;20471;49.680;20.074;2024-03-25T07:59:50;95911.13;;;4.77;75.43
34205;BME280;20471;49.680;20.074;2024-03-25T08:02:17;95909.78;;;4.84;74.85
34205;BME280;20471;49.680;20.074;2024-03-25T08:04:43;95911.81;;;4.90;74.51
34205;BME280;20471;49.680;20.074;2024-03-25T08:07:10;95911.34;;;4.96;74.37
34205;BME280;20471;49.680;20.074;2024-03-25T08:09:36;95909.89;;;5.05;74.67
34205;BME280;20471;49.680;20.074;2024-03-25T08:12:02;95908.10;;;5.19;74.45
34205;BME280;20471;49.680;20.074;2024-03-25T08:14:29;95906.52;;;5.36;74.13
34205;BME280;20471;49.680;20.074;2024-03-25T08:16:55;95907.48;;;5.51;74.12
34205;BME280;20471;49.680;20.074;2024-03-25T08:19:21;95902.98;;;5.60;73.89
34205;BME280;20471;49.680;20.074;2024-03-25T08:21:48;95900.00;;;5.64;73.76
34205;BME280;20471;49.680;20.074;2024-03-25T08:24:14;95907.14;;;5.64;73.12
34205;BME280;20471;49.680;20.074;2024-03-25T08:26:41;95910.77;;;5.55;72.70
34205;BME280;20471;49.680;20.074;2024-03-25T08:29:07;95914.59;;;5.48;73.06
34205;BME280;20471;49.680;20.074;2024-03-25T08:31:34;95912.21;;;5.42;73.44
34205;BME280;20471;49.680;20.074;2024-03-25T08:34:00;95920.60;;;5.35;73.13
34205;BME280;20471;49.680;20.074;2024-03-25T08:36:27;95920.81;;;5.28;73.32
34205;BME280;20471;49.680;20.074;2024-03-25T08:38:53;95921.89;;;5.26;73.89
34205;BME280;20471;49.680;20.074;2024-03-25T08:41:19;95920.78;;;5.33;74.38
34205;BME280;20471;49.680;20.074;2024-03-25T08:43:45;95920.70;;;5.48;74.75
34205;BME280;20471;49.680;20.074;2024-03-25T08:46:12;95920.73;;;5.62;74.57
34205;BME280;20471;49.680;20.074;2024-03-25T08:48:38;95918.20;;;5.70;74.12
34205;BME280;20471;49.680;20.074;2024-03-25T08:51:04;95918.61;;;5.76;73.78
34205;BME280;20471;49.680;20.074;2024-03-25T08:53:31;95920.25;;;5.81;73.30
34205;BME280;20471;49.680;20.074;2024-03-25T08:55:57;95920.73;;;5.85;73.16
34205;BME280;20471;49.680;20.074;2024-03-25T08:58:23;95923.95;;;5.91;73.01
34205;BME280;20471;49.680;20.074;2024-03-25T09:00:49;95921.56;;;5.96;72.73
34205;BME280;20471;49.680;20.074;2024-03-25T09:03:16;95924.17;;;6.04;72.71
34205;BME280;20471;49.680;20.074;2024-03-25T09:05:42;95925.73;;;6.15;72.46
34205;BME280;20471;49.680;20.074;2024-03-25T09:08:08;95925.25;;;6.19;71.81
34205;BME280;20471;49.680;20.074;2024-03-25T09:10:37;95924.17;;;6.19;71.75
34205;BME280;20471;49.680;20.074;2024-03-25T09:13:22;95921.44;;;6.23;71.44
34205;BME280;20471;49.680;20.074;2024-03-25T09:15:49;95922.85;;;6.25;71.33
34205;BME280;20471;49.680;20.074;2024-03-25T09:18:16;95925.34;;;6.27;71.10
34205;BME280;20471;49.680;20.074;2024-03-25T09:20:44;95923.63;;;6.35;71.34
34205;BME280;20471;49.680;20.074;2024-03-25T09:23:10;95930.21;;;6.52;71.38
34205;BME280;20471;49.680;20.074;2024-03-25T09:25:37;95928.48;;;6.83;71.47
34205;BME280;20471;49.680;20.074;2024-03-25T09:28:03;95925.14;;;7.26;70.86
34205;BME280;20471;49.680;20.074;2024-03-25T09:30:30;95929.52;;;7.47;70.32
34205;BME280;20471;49.680;20.074;2024-03-25T09:32:56;95928.00;;;7.54;69.65
34205;BME280;20471;49.680;20.074;2024-03-25T09:35:23;95929.23;;;7.52;68.08
34205;BME280;20471;49.680;20.074;2024-03-25T09:37:49;95934.24;;;7.41;67.63
34205;BME280;20471;49.680;20.074;2024-03-25T09:40:16;95935.71;;;7.33;68.02
34205;BME280;20471;49.680;20.074;2024-03-25T09:42:55;95932.96;;;7.35;66.74
34205;BME280;20471;49.680;20.074;2024-03-25T09:45:32;95936.04;;;7.34;66.54
34205;BME280;20471;49.680;20.074;2024-03-25T09:48:00;95936.68;;;7.32;67.30
34205;BME280;20471;49.680;20.074;2024-03-25T09:50:26;95937.22;;;7.28;67.10
34205;BME280;20471;49.680;20.074;2024-03-25T09:52:52;95940.16;;;7.22;66.63
34205;BME280;20471;49.680;20.074;2024-03-25T09:55:19;95943.19;;;7.13;67.04
34205;BME280;20471;49.680;20.074;2024-03-25T09:57:45;95936.95;;;7.07;67.63
34205;BME280;20471;49.680;20.074;2024-03-25T10:00:13;95944.73;;;7.05;68.03
34205;BME280;20471;49.680;20.074;2024-03-25T10:02:41;95950.09;;;6.96;68.55
34205;BME280;20471;49.680;20.074;2024-03-25T10:05:08;95950.86;;;6.82;68.69
34205;BME280;20471;49.680;20.074;2024-03-25T10:07:35;95950.13;;;6.68;68.82
34205;BME280;20471;49.680;20.074;2024-03-25T10:10:05;95952.73;;;6.64;69.49
34205;BME280;20471;49.680;20.074;2024-03-25T10:12:32;95956.66;;;6.60;69.85
34205;BME280;20471;49.680;20.074;2024-03-25T10:14:59;95948.34;;;6.54;70.07
34205;BME280;20471;49.680;20.074;2024-03-25T10:17:26;95953.04;;;6.46;70.15
34205;BME280;20471;49.680;20.074;2024-03-25T10:19:55;95957.82;;;6.38;70.87
34205;BME280;20471;49.680;20.074;2024-03-25T10:22:21;95959.49;;;6.30;71.20
34205;BME280;20471;49.680;20.074;2024-03-25T10:24:48;95959.46;;;6.25;71.41
34205;BME280;20471;49.680;20.074;2024-03-25T10:27:19;95956.17;;;6.18;71.30
34205;BME280;20471;49.680;20.074;2024-03-25T10:29:54;95956.29;;;6.15;71.52
34205;BME280;20471;49.680;20.074;2024-03-25T10:32:21;95955.70;;;6.39;72.46
34205;BME280;20471;49.680;20.074;2024-03-25T10:34:50;95956.86;;;6.72;72.92
34205;BME280;20471;49.680;20.074;2024-03-25T10:37:17;95957.23;;;6.92;72.41
34205;BME280;20471;49.680;20.074;2024-03-25T10:39:50;95957.66;;;6.98;72.36
34205;BME280;20471;49.680;20.074;2024-03-25T10:42:20;95962.95;;;7.18;72.70
34205;BME280;20471;49.680;20.074;2024-03-25T10:44:47;95959.31;;;7.50;72.94
34205;BME280;20471;49.680;20.074;2024-03-25T10:47:20;95961.52;;;7.87;72.83
34205;BME280;20471;49.680;20.074;2024-03-25T10:49:51;95954.58;;;8.10;71.53
34205;BME280;20471;49.680;20.074;2024-03-25T10:52:21;95956.20;;;8.19;70.73
34205;BME280;20471;49.680;20.074;2024-03-25T10:54:50;95959.88;;;8.19;70.00
34205;BME280;20471;49.680;20.074;2024-03-25T10:57:17;95962.88;;;8.21;69.30
34205;BME280;20471;49.680;20.074;2024-03-25T10:59:45;95957.39;;;8.45;69.02
34205;BME280;20471;49.680;20.074;2024-03-25T11:02:12;95953.96;;;8.93;68.27
34205;BME280;20471;49.680;20.074;2024-03-25T11:04:39;95952.11;;;9.44;68.93
34205;BME280;20471;49.680;20.074;2024-03-25T11:07:10;95949.30;;;10.06;68.84
34205;BME280;20471;49.680;20.074;2024-03-25T11:09:38;95951.20;;;10.25;65.73
34205;BME280;20471;49.680;20.074;2024-03-25T11:12:05;95948.05;;;10.30;64.89
34205;BME280;20471;49.680;20.074;2024-03-25T11:14:31;95948.55;;;10.65;65.29
34205;BME280;20471;49.680;20.074;2024-03-25T11:17:00;95944.77;;;11.15;65.69
34205;BME280;20471;49.680;20.074;2024-03-25T11:19:28;95944.60;;;11.39;64.53
34205;BME280;20471;49.680;20.074;2024-03-25T11:22:06;95949.76;;;11.24;62.86
34205;BME280;20471;49.680;20.074;2024-03-25T11:24:34;95944.19;;;11.03;62.36
34205;BME280;20471;49.680;20.074;2024-03-25T11:27:02;95938.06;;;10.98;61.66
34205;BME280;20471;49.680;20.074;2024-03-25T11:29:28;95946.13;;;11.23;62.12
34205;BME280;20471;49.680;20.074;2024-03-25T11:32:00;95941.05;;;11.56;60.33
34205;BME280;20471;49.680;20.074;2024-03-25T11:34:29;95943.74;;;11.58;59.52
34205;BME280;20471;49.680;20.074;2024-03-25T11:36:56;95940.09;;;11.73;60.39
34205;BME280;20471;49.680;20.074;2024-03-25T11:39:26;95929.39;;;11.99;60.07
34205;BME280;20471;49.680;20.074;2024-03-25T11:41:54;95929.85;;;12.14;59.55
34205;BME280;20471;49.680;20.074;2024-03-25T11:44:21;95927.56;;;12.51;59.10
34205;BME280;20471;49.680;20.074;2024-03-25T11:46:50;95926.93;;;12.75;56.82
34205;BME280;20471;49.680;20.074;2024-03-25T11:49:16;95926.98;;;12.66;55.39
34205;BME280;20471;49.680;20.074;2024-03-25T11:51:44;95930.59;;;12.63;55.39
34205;BME280;20471;49.680;20.074;2024-03-25T11:54:12;95929.16;;;12.76;55.62
34205;BME280;20471;49.680;20.074;2024-03-25T11:56:39;95934.85;;;12.86;54.64
34205;BME280;20471;49.680;20.074;2024-03-25T11:59:06;95941.98;;;12.69;52.64
34205;BME280;20471;49.680;20.074;2024-03-25T12:01:33;95967.41;;;12.33;54.27
34205;BME280;20471;49.680;20.074;2024-03-25T12:04:15;95995.16;;;11.74;54.53
34205;BME280;20471;49.680;20.074;2024-03-25T12:06:42;96017.30;;;10.93;55.35
34205;BME280;20471;49.680;20.074;2024-03-25T12:09:08;96021.86;;;10.25;56.14
34205;BME280;20471;49.680;20.074;2024-03-25T12:11:53;96030.98;;;9.63;57.11
34205;BME280;20471;49.680;20.074;2024-03-25T12:14:22;96035.58;;;9.20;57.88
34205;BME280;20471;49.680;20.074;2024-03-25T12:16:49;96035.27;;;8.75;58.36
34205;BME280;20471;49.680;20.074;2024-03-25T12:19:16;96027.52;;;8.28;59.04
34205;BME280;20471;49.680;20.074;2024-03-25T12:21:44;96032.24;;;7.84;59.92
34205;BME280;20471;49.680;20.074;2024-03-25T12:24:11;96031.21;;;7.45;60.68
34205;BME280;20471;49.680;20.074;2024-03-25T12:26:37;96029.88;;;7.21;61.95
34205;BME280;20471;49.680;20.074;2024-03-25T12:29:05;96033.75;;;7.14;62.98
34205;BME280;20471;49.680;20.074;2024-03-25T12:31:31;96035.53;;;7.11;63.42
34205;BME280;20471;49.680;20.074;2024-03-25T12:33:58;96043.89;;;7.08;63.78
34205;BME280;20471;49.680;20.074;2024-03-25T12:36:24;96045.27;;;7.05;64.32
34205;BME280;20471;49.680;20.074;2024-03-25T12:38:56;96048.20;;;7.03;64.68
34205;BME280;20471;49.680;20.074;2024-03-25T12:41:23;96049.88;;;7.03;64.67
34205;BME280;20471;49.680;20.074;2024-03-25T12:43:50;96051.13;;;7.08;64.91
34205;BME280;20471;49.680;20.074;2024-03-25T12:46:17;96050.16;;;7.08;65.03
34205;BME280;20471;49.680;20.074;2024-03-25T12:48:44;96053.34;;;7.04;64.82
34205;BME280;20471;49.680;20.074;2024-03-25T12:51:13;96045.00;;;6.89;64.65
34205;BME280;20471;49.680;20.074;2024-03-25T12:53:40;96046.60;;;6.76;64.80
34205;BME280;20471;49.680;20.074;2024-03-25T12:56:06;96048.30;;;6.72;65.35
34205;BME280;20471;49.680;20.074;2024-03-25T12:58:33;96051.58;;;6.67;65.50
34205;BME280;20471;49.680;20.074;2024-03-25T13:01:00;96052.98;;;6.61;65.93
34205;BME280;20471;49.680;20.074;2024-03-25T13:03:27;96050.27;;;6.67;66.68